Time;durP1;ratioP1;P1;durP2;ratioP2;P2;SDS_P1;SDS_P2;PMS_P1;PMS_P2;Temp;Humidity;BMP_temperature;BMP_pressure;BME280_temperature;BME280_humidity;BME280_pressure;Samples;Min_cycle;Max_cycle;Signal;HPM_P1;HPM_P2
2021/01/19 00:01:07;;;;;;;9.63;6.13;;;1.80;99.90;;;;;;5033225;28;20191;-46
2021/01/19 00:03:32;;;;;;;6.90;5.90;;;1.80;99.90;;;;;;5034719;28;20439;-45
2021/01/19 00:05:58;;;;;;;7.70;5.57;;;1.90;99.90;;;;;;5033906;28;20239;-45
2021/01/19 00:08:24;;;;;;;8.03;5.73;;;1.90;99.90;;;;;;5033452;28;20195;-45
2021/01/19 00:10:50;;;;;;;6.93;5.77;;;1.80;99.90;;;;;;5031689;28;20204;-51
2021/01/19 00:13:19;;;;;;;8.27;5.63;;;1.80;99.90;;;;;;5033879;28;20179;-46
2021/01/19 00:15:46;;;;;;;7.57;5.63;;;1.90;99.90;;;;;;5034259;28;20179;-45
2021/01/19 00:18:12;;;;;;;5.90;5.03;;;1.90;99.90;;;;;;5034253;28;20751;-49
2021/01/19 00:20:37;;;;;;;6.97;5.30;;;1.90;99.90;;;;;;5012995;28;20973;-46
2021/01/19 00:23:03;;;;;;;6.33;4.90;;;2.00;99.90;;;;;;5034449;28;20188;-46
2021/01/19 00:25:28;;;;;;;7.43;5.20;;;2.00;99.90;;;;;;5034282;28;20706;-47
2021/01/19 00:27:54;;;;;;;6.50;5.00;;;2.00;99.90;;;;;;5033011;28;20188;-46
2021/01/19 00:30:20;;;;;;;6.83;5.23;;;2.00;99.90;;;;;;5032814;28;20230;-48
2021/01/19 00:32:45;;;;;;;7.20;5.30;;;2.00;99.90;;;;;;5032031;28;20188;-46
2021/01/19 00:35:11;;;;;;;6.63;5.20;;;2.00;99.90;;;;;;5033103;28;20304;-46
2021/01/19 00:37:36;;;;;;;6.53;4.93;;;2.00;99.90;;;;;;5033893;28;20188;-50
2021/01/19 00:40:03;;;;;;;8.57;4.87;;;2.00;99.90;;;;;;5033110;28;20333;-47
2021/01/19 00:42:28;;;;;;;6.17;4.97;;;2.00;99.90;;;;;;5035313;28;20210;-46
2021/01/19 00:44:54;;;;;;;6.57;5.10;;;2.10;99.90;;;;;;5032453;28;20559;-47
2021/01/19 00:47:19;;;;;;;7.43;4.83;;;2.00;99.90;;;;;;5033583;28;20608;-47
2021/01/19 00:49:45;;;;;;;5.93;4.77;;;2.00;99.90;;;;;;5033383;28;20230;-46
2021/01/19 00:52:10;;;;;;;6.07;4.80;;;2.10;99.90;;;;;;5034344;28;20179;-48
2021/01/19 00:54:36;;;;;;;5.70;4.53;;;2.10;99.90;;;;;;5035138;28;20168;-47
2021/01/19 00:57:02;;;;;;;8.70;5.50;;;2.20;99.90;;;;;;5000698;28;20188;-47
2021/01/19 00:59:27;;;;;;;7.13;5.33;;;2.20;99.90;;;;;;5033344;28;20253;-46
2021/01/19 01:01:53;;;;;;;7.27;5.13;;;2.20;99.90;;;;;;5013562;28;567542;-48
2021/01/19 01:04:18;;;;;;;6.00;5.10;;;2.30;99.90;;;;;;5017199;28;20184;-46
2021/01/19 01:06:44;;;;;;;6.10;5.10;;;2.40;99.90;;;;;;5037125;28;20582;-47
2021/01/19 01:09:09;;;;;;;6.93;4.80;;;2.50;99.90;;;;;;5035298;28;20294;-46
2021/01/19 01:11:43;;;;;;;7.50;4.63;;;2.60;99.90;;;;;;5034205;28;20183;-45
2021/01/19 01:14:10;;;;;;;7.17;4.50;;;2.50;99.90;;;;;;5034697;28;20547;-45
2021/01/19 01:16:36;;;;;;;5.90;5.00;;;2.40;99.90;;;;;;5034619;28;20414;-48
2021/01/19 01:19:03;;;;;;;7.63;5.13;;;2.30;99.90;;;;;;5035586;28;20206;-47
2021/01/19 01:21:29;;;;;;;7.10;4.93;;;2.30;99.90;;;;;;5033350;28;20450;-48
2021/01/19 01:23:55;;;;;;;6.43;4.40;;;2.30;99.90;;;;;;5032895;28;20406;-46
2021/01/19 01:26:20;;;;;;;6.67;4.83;;;2.20;99.90;;;;;;5034313;28;20188;-46
2021/01/19 01:28:47;;;;;;;6.43;4.40;;;2.10;99.90;;;;;;5035040;28;20192;-46
2021/01/19 01:31:17;;;;;;;5.00;4.10;;;2.10;99.90;;;;;;5035898;28;20207;-45
2021/01/19 01:33:42;;;;;;;6.60;4.50;;;2.10;99.90;;;;;;5035455;28;20891;-47
2021/01/19 01:36:08;;;;;;;5.97;4.20;;;2.10;99.90;;;;;;5034656;28;20429;-48
2021/01/19 01:38:33;;;;;;;5.97;4.50;;;2.20;99.90;;;;;;5036374;28;20207;-52
2021/01/19 01:40:59;;;;;;;5.10;4.13;;;2.20;99.90;;;;;;5034235;28;20168;-45
2021/01/19 01:43:24;;;;;;;5.90;4.10;;;2.20;99.90;;;;;;5034388;28;20214;-46
2021/01/19 01:45:50;;;;;;;4.97;4.00;;;2.20;99.90;;;;;;5034058;28;20568;-45
2021/01/19 01:48:15;;;;;;;5.83;4.40;;;2.20;99.90;;;;;;5035085;28;20544;-45
2021/01/19 01:50:41;;;;;;;5.20;4.20;;;2.20;99.90;;;;;;5033950;28;20235;-46
2021/01/19 01:53:07;;;;;;;7.07;4.33;;;2.10;99.90;;;;;;5031543;28;20200;-47
2021/01/19 01:55:34;;;;;;;5.17;4.00;;;2.00;99.90;;;;;;5034001;28;20172;-49
2021/01/19 01:57:59;;;;;;;5.13;3.90;;;2.00;99.90;;;;;;5033313;28;20172;-45
2021/01/19 02:00:25;;;;;;;5.10;4.07;;;2.00;99.90;;;;;;5033170;28;20172;-45
2021/01/19 02:02:52;;;;;;;5.27;4.10;;;2.00;99.90;;;;;;5033593;28;20543;-48
2021/01/19 02:05:19;;;;;;;4.30;3.90;;;2.00;99.90;;;;;;5033320;28;20188;-45
2021/01/19 02:08:08;;;;;;;5.00;4.00;;;2.00;99.90;;;;;;5034469;28;20410;-50
2021/01/19 02:10:36;;;;;;;6.37;4.53;;;1.90;99.90;;;;;;5035268;28;20684;-45
2021/01/19 02:13:34;;;;;;;4.50;3.80;;;1.80;99.90;;;;;;5037550;28;20398;-50
2021/01/19 02:16:15;;;;;;;6.43;4.17;;;1.70;99.90;;;;;;5037980;28;20434;-49
2021/01/19 02:19:40;;;;;;;5.10;4.30;;;1.50;99.90;;;;;;5040248;28;20441;-46
2021/01/19 02:22:43;;;;;;;4.97;3.90;;;1.40;99.90;;;;;;5011138;28;20422;-47
2021/01/19 02:25:18;;;;;;;6.20;4.13;;;1.40;99.90;;;;;;5039017;28;20472;-47
2021/01/19 02:28:29;;;;;;;5.97;3.90;;;1.30;99.90;;;;;;5040441;28;20414;-48
2021/01/19 02:30:57;;;;;;;5.47;3.73;;;1.40;99.90;;;;;;5037249;28;20462;-45
2021/01/19 02:33:23;;;;;;;5.17;4.00;;;1.30;99.90;;;;;;5037579;28;20442;-47
2021/01/19 02:36:12;;;;;;;4.43;3.80;;;1.30;99.90;;;;;;5035835;28;20585;-48
2021/01/19 02:38:44;;;;;;;4.47;3.63;;;1.30;99.90;;;;;;5040237;28;20250;-47
2021/01/19 02:41:10;;;;;;;4.20;3.67;;;1.30;99.90;;;;;;5035881;28;20868;-45
2021/01/19 02:43:41;;;;;;;5.93;4.20;;;1.30;99.90;;;;;;5018581;28;20464;-48
2021/01/19 02:46:06;;;;;;;5.37;3.93;;;1.30;99.90;;;;;;5037025;28;20802;-52
2021/01/19 02:48:32;;;;;;;4.10;3.50;;;1.30;99.90;;;;;;5035852;28;20966;-45
2021/01/19 02:50:58;;;;;;;6.40;3.80;;;1.30;99.90;;;;;;5037029;28;20636;-48
2021/01/19 02:53:24;;;;;;;5.30;3.60;;;1.30;99.90;;;;;;5038006;28;20922;-48
2021/01/19 02:55:51;;;;;;;4.90;3.57;;;1.30;99.90;;;;;;5037356;28;20263;-51
2021/01/19 02:58:38;;;;;;;5.03;4.00;;;1.30;99.90;;;;;;5035429;28;20250;-45
2021/01/19 03:01:15;;;;;;;7.13;3.93;;;1.50;99.90;;;;;;5037087;28;20414;-46
2021/01/19 03:03:42;;;;;;;4.13;3.57;;;1.60;99.90;;;;;;5035083;28;20919;-47
2021/01/19 03:06:12;;;;;;;4.27;3.10;;;1.60;99.90;;;;;;5037173;28;20415;-45
2021/01/19 03:08:40;;;;;;;4.10;3.20;;;1.50;99.90;;;;;;5039438;28;20438;-45
2021/01/19 03:11:07;;;;;;;4.30;3.63;;;1.50;99.90;;;;;;5040386;28;20409;-46
2021/01/19 03:13:33;;;;;;;4.60;3.23;;;1.50;99.90;;;;;;5032895;28;20500;-45
2021/01/19 03:16:10;;;;;;;4.83;3.50;;;1.50;99.90;;;;;;5036768;28;20434;-45
2021/01/19 03:18:37;;;;;;;5.43;3.80;;;1.40;99.90;;;;;;5035414;28;20187;-52
2021/01/19 03:21:07;;;;;;;5.73;3.50;;;1.40;99.90;;;;;;5020823;28;20410;-48
2021/01/19 03:23:34;;;;;;;5.67;3.83;;;1.40;99.90;;;;;;5037427;28;20430;-45
2021/01/19 03:26:00;;;;;;;4.37;3.40;;;1.40;99.90;;;;;;5037922;28;20751;-46
2021/01/19 03:28:26;;;;;;;4.33;3.37;;;1.30;99.90;;;;;;5022110;28;20568;-46
2021/01/19 03:30:52;;;;;;;5.47;3.67;;;1.30;99.90;;;;;;5036937;28;20537;-53
2021/01/19 03:33:17;;;;;;;3.87;3.47;;;1.30;99.90;;;;;;5003325;28;20184;-49
2021/01/19 03:35:43;;;;;;;4.77;3.80;;;1.40;99.90;;;;;;5034381;28;20422;-45
2021/01/19 03:38:09;;;;;;;5.77;3.77;;;1.40;99.90;;;;;;5035794;28;20202;-47
2021/01/19 03:40:34;;;;;;;3.53;3.23;;;1.40;99.90;;;;;;5020894;28;20187;-45
2021/01/19 03:43:00;;;;;;;6.23;3.80;;;1.50;99.90;;;;;;5037537;28;20262;-45
2021/01/19 03:45:29;;;;;;;3.60;3.30;;;1.40;99.90;;;;;;5034701;28;20279;-45
2021/01/19 03:47:55;;;;;;;4.10;3.30;;;1.50;99.90;;;;;;5034235;28;20521;-45
2021/01/19 03:50:21;;;;;;;4.73;3.70;;;1.50;99.90;;;;;;5018946;28;20493;-47
2021/01/19 03:52:46;;;;;;;4.50;3.37;;;1.50;99.90;;;;;;5016898;28;20199;-50
2021/01/19 03:55:12;;;;;;;7.17;6.03;;;1.50;99.90;;;;;;5040631;28;20172;-47
2021/01/19 03:57:38;;;;;;;4.23;3.73;;;1.50;99.90;;;;;;5037493;28;20505;-46
2021/01/19 04:00:09;;;;;;;4.73;3.63;;;1.50;99.90;;;;;;5031641;28;20246;-46
2021/01/19 04:02:35;;;;;;;9.07;7.33;;;1.50;99.90;;;;;;5034093;28;20203;-46
2021/01/19 04:05:02;;;;;;;4.03;3.60;;;1.50;99.90;;;;;;5036297;28;20413;-46
2021/01/19 04:07:27;;;;;;;4.57;3.70;;;1.40;99.90;;;;;;5042387;28;20314;-48
2021/01/19 04:09:53;;;;;;;4.73;3.10;;;1.40;99.90;;;;;;5035402;28;20497;-49
2021/01/19 04:12:18;;;;;;;3.77;3.40;;;1.40;99.90;;;;;;5031694;28;20209;-44
2021/01/19 04:14:44;;;;;;;6.27;4.13;;;1.50;99.90;;;;;;5036382;28;20184;-45
2021/01/19 04:17:10;;;;;;;5.10;3.77;;;1.50;99.90;;;;;;5035179;28;20175;-47
2021/01/19 04:19:35;;;;;;;8.30;6.67;;;1.40;99.90;;;;;;5019845;28;20199;-45
2021/01/19 04:22:01;;;;;;;6.17;4.27;;;1.30;99.90;;;;;;5034527;28;20222;-46
2021/01/19 04:24:26;;;;;;;7.40;5.83;;;1.30;99.90;;;;;;5037631;28;20200;-45
2021/01/19 04:26:52;;;;;;;22.87;18.87;;;1.40;99.90;;;;;;5038766;28;20187;-47
2021/01/19 04:29:17;;;;;;;5.60;3.80;;;1.30;99.90;;;;;;5016163;28;20207;-45
2021/01/19 04:31:43;;;;;;;5.07;4.40;;;1.20;99.90;;;;;;5033553;28;20186;-45
2021/01/19 04:34:08;;;;;;;5.70;3.63;;;1.20;99.90;;;;;;5031793;28;20636;-45
2021/01/19 04:36:34;;;;;;;4.63;4.07;;;1.10;99.90;;;;;;5033884;28;20699;-46
2021/01/19 04:38:59;;;;;;;5.47;4.00;;;1.10;99.90;;;;;;5035209;28;20204;-47
2021/01/19 04:41:28;;;;;;;4.30;3.67;;;1.10;99.90;;;;;;5031251;28;20192;-49
2021/01/19 04:43:57;;;;;;;5.07;3.60;;;1.10;99.90;;;;;;5031518;28;20179;-46
2021/01/19 04:46:25;;;;;;;4.77;3.63;;;1.10;99.90;;;;;;5034794;28;20410;-45
2021/01/19 04:48:53;;;;;;;4.57;3.97;;;1.20;99.90;;;;;;5037317;28;20466;-45
2021/01/19 04:51:22;;;;;;;6.37;4.13;;;1.10;99.90;;;;;;5037889;28;20399;-45
2021/01/19 04:54:07;;;;;;;9.27;4.33;;;1.10;99.90;;;;;;5035834;28;20411;-46
2021/01/19 04:56:37;;;;;;;4.40;3.77;;;1.10;99.90;;;;;;5039586;28;20486;-46
2021/01/19 04:59:11;;;;;;;5.80;4.10;;;1.10;99.90;;;;;;5017568;28;20961;-47
2021/01/19 05:01:38;;;;;;;6.13;4.20;;;1.10;99.90;;;;;;5032980;28;20437;-46
2021/01/19 05:04:43;;;;;;;7.40;3.87;;;1.00;99.90;;;;;;5035192;28;20438;-45
2021/01/19 05:07:29;;;;;;;5.03;3.97;;;0.90;99.90;;;;;;5036197;28;20406;-46
2021/01/19 05:10:32;;;;;;;5.57;3.50;;;0.80;99.90;;;;;;5037592;28;20946;-46
2021/01/19 05:13:06;;;;;;;5.83;4.23;;;0.90;99.90;;;;;;5036784;28;20403;-45
2021/01/19 05:15:34;;;;;;;19.93;9.77;;;0.80;99.90;;;;;;5035755;28;20498;-45
2021/01/19 05:18:01;;;;;;;8.03;5.87;;;0.80;99.90;;;;;;5030476;28;20474;-43
2021/01/19 05:20:30;;;;;;;46.40;23.90;;;0.80;99.90;;;;;;5032820;28;20441;-45
2021/01/19 05:22:57;;;;;;;19.70;10.73;;;0.70;99.90;;;;;;5034703;28;20838;-45
2021/01/19 05:25:22;;;;;;;54.53;24.80;;;0.70;99.90;;;;;;5035013;28;20409;-45
2021/01/19 05:27:48;;;;;;;6.80;4.80;;;0.60;99.90;;;;;;5033476;28;20430;-45
2021/01/19 05:30:14;;;;;;;7.93;5.10;;;0.70;99.90;;;;;;5034473;28;20219;-48
2021/01/19 05:32:41;;;;;;;26.27;12.90;;;0.70;99.90;;;;;;5036540;28;20202;-48
2021/01/19 05:35:19;;;;;;;21.27;11.57;;;0.80;99.90;;;;;;5034566;28;20176;-47
2021/01/19 05:38:01;;;;;;;14.53;7.87;;;0.80;99.90;;;;;;5032183;28;20529;-48
2021/01/19 05:40:27;;;;;;;22.20;11.17;;;0.90;99.90;;;;;;5035162;28;20758;-45
2021/01/19 05:42:54;;;;;;;28.07;14.00;;;0.80;99.90;;;;;;5037165;28;20442;-48
2021/01/19 05:45:20;;;;;;;24.13;12.27;;;0.80;99.90;;;;;;5035982;28;20871;-44
2021/01/19 05:47:46;;;;;;;27.27;13.73;;;0.80;99.90;;;;;;5040028;28;20413;-47
2021/01/19 05:50:13;;;;;;;20.47;10.63;;;0.80;99.90;;;;;;5038832;28;20457;-48
2021/01/19 05:52:38;;;;;;;13.73;7.07;;;0.90;99.90;;;;;;5040560;28;20168;-52
2021/01/19 05:55:05;;;;;;;11.27;6.70;;;0.80;99.90;;;;;;5040560;28;20434;-46
2021/01/19 05:57:30;;;;;;;7.07;4.70;;;0.60;99.90;;;;;;5037568;28;20176;-45
2021/01/19 05:59:58;;;;;;;7.47;5.00;;;0.50;99.90;;;;;;5035384;28;20446;-47
2021/01/19 06:02:43;;;;;;;5.80;4.63;;;0.30;99.90;;;;;;5039276;28;20195;-46
2021/01/19 06:05:16;;;;;;;6.20;5.33;;;0.30;99.90;;;;;;5039237;28;20496;-47
2021/01/19 06:07:45;;;;;;;8.73;5.33;;;0.30;99.90;;;;;;5036440;28;20537;-47
2021/01/19 06:10:13;;;;;;;8.37;7.47;;;0.40;99.90;;;;;;5039376;28;20482;-46
2021/01/19 06:12:38;;;;;;;6.97;4.83;;;0.40;99.90;;;;;;5037303;28;20399;-47
2021/01/19 06:15:06;;;;;;;22.50;16.17;;;0.40;99.90;;;;;;5037614;28;20756;-46
2021/01/19 06:17:31;;;;;;;8.60;6.90;;;0.50;99.90;;;;;;5036859;28;20172;-45
2021/01/19 06:19:59;;;;;;;8.67;5.67;;;0.50;99.90;;;;;;5038261;28;20449;-48
2021/01/19 06:22:26;;;;;;;6.97;5.17;;;0.60;99.90;;;;;;5033528;28;20314;-45
2021/01/19 06:24:53;;;;;;;8.13;6.30;;;0.70;99.90;;;;;;5035451;28;20976;-44
2021/01/19 06:27:24;;;;;;;6.67;5.10;;;0.70;99.90;;;;;;5038785;28;20449;-45
2021/01/19 06:29:51;;;;;;;97.60;63.33;;;0.60;99.90;;;;;;5042136;28;20508;-45
2021/01/19 06:32:17;;;;;;;52.47;33.87;;;0.70;99.90;;;;;;5039559;28;20410;-47
2021/01/19 06:34:44;;;;;;;323.17;181.00;;;0.60;99.90;;;;;;5038593;28;20451;-43
2021/01/19 06:37:23;;;;;;;89.77;46.20;;;0.70;99.90;;;;;;5035953;28;20518;-47
2021/01/19 06:39:55;;;;;;;19.70;12.17;;;0.70;99.90;;;;;;5037457;28;20466;-45
2021/01/19 06:42:26;;;;;;;210.80;125.63;;;0.60;99.90;;;;;;5034160;28;20527;-50
2021/01/19 06:44:54;;;;;;;52.00;33.20;;;0.60;99.90;;;;;;5021359;28;20433;-45
2021/01/19 06:47:21;;;;;;;81.57;43.63;;;0.60;99.90;;;;;;5018938;28;20434;-51
2021/01/19 06:49:46;;;;;;;210.30;93.47;;;0.50;99.90;;;;;;5019959;28;20467;-47
2021/01/19 06:52:15;;;;;;;121.20;54.87;;;0.50;99.90;;;;;;5019551;28;20399;-45
2021/01/19 06:55:01;;;;;;;34.03;20.43;;;0.50;99.90;;;;;;5016314;28;20168;-45
2021/01/19 06:57:32;;;;;;;8.67;6.70;;;0.30;99.90;;;;;;5034173;28;20414;-46
2021/01/19 07:00:10;;;;;;;79.13;34.50;;;0.30;99.90;;;;;;5020831;28;20469;-44
2021/01/19 07:02:38;;;;;;;10.63;7.33;;;0.30;99.90;;;;;;5033356;28;20884;-46
2021/01/19 07:05:08;;;;;;;13.60;8.50;;;0.30;99.90;;;;;;5029163;28;20472;-45
2021/01/19 07:07:40;;;;;;;29.00;16.07;;;0.20;99.90;;;;;;5024457;28;20451;-44
2021/01/19 07:10:14;;;;;;;8.47;5.93;;;0.20;99.90;;;;;;5018642;28;20462;-46
2021/01/19 07:12:59;;;;;;;9.10;6.00;;;0.20;99.90;;;;;;5031650;28;20501;-48
2021/01/19 07:16:05;;;;;;;6.93;5.90;;;0.20;99.90;;;;;;5031101;28;20418;-45
2021/01/19 07:18:43;;;;;;;7.43;5.17;;;0.30;99.90;;;;;;5033100;28;21080;-45
2021/01/19 07:21:15;;;;;;;7.50;6.00;;;0.30;99.90;;;;;;5028625;28;20431;-45
2021/01/19 07:23:44;;;;;;;8.90;6.60;;;0.30;99.90;;;;;;5033526;28;20572;-44
2021/01/19 07:26:12;;;;;;;7.87;6.00;;;0.30;99.90;;;;;;5036147;28;20402;-49
2021/01/19 07:28:38;;;;;;;9.10;6.23;;;0.30;99.90;;;;;;5035351;28;20422;-45
2021/01/19 07:31:04;;;;;;;6.67;5.40;;;0.30;99.90;;;;;;5036452;28;20480;-45
2021/01/19 07:33:30;;;;;;;7.93;6.07;;;0.30;99.90;;;;;;5031334;28;20419;-50
2021/01/19 07:35:57;;;;;;;9.10;8.20;;;0.40;99.90;;;;;;5035112;28;20176;-45
2021/01/19 07:38:23;;;;;;;10.80;8.40;;;0.40;99.90;;;;;;5033046;28;20484;-46
2021/01/19 07:40:49;;;;;;;7.60;5.97;;;0.50;99.90;;;;;;5032194;28;20803;-45
2021/01/19 07:43:21;;;;;;;9.17;7.83;;;0.60;99.90;;;;;;5037086;28;20403;-45
2021/01/19 07:45:55;;;;;;;8.77;6.27;;;0.70;99.90;;;;;;5016441;28;20510;-48
2021/01/19 07:48:35;;;;;;;9.40;6.03;;;0.60;99.90;;;;;;5031882;28;20926;-46
2021/01/19 07:51:17;;;;;;;7.07;5.83;;;0.50;99.90;;;;;;5029007;28;20539;-45
2021/01/19 07:53:49;;;;;;;7.33;5.97;;;0.60;99.90;;;;;;5034098;28;20493;-48
2021/01/19 07:56:32;;;;;;;7.80;5.87;;;0.60;99.90;;;;;;5034350;28;20419;-45
2021/01/19 07:58:58;;;;;;;6.93;5.27;;;0.70;99.90;;;;;;5033866;28;20430;-45
2021/01/19 08:01:29;;;;;;;6.93;5.60;;;0.70;99.90;;;;;;5038489;28;20418;-45
2021/01/19 08:04:06;;;;;;;6.30;5.67;;;0.70;99.90;;;;;;5035972;28;20426;-46
2021/01/19 08:06:32;;;;;;;7.17;5.43;;;0.70;99.90;;;;;;5034201;28;20406;-45
2021/01/19 08:09:14;;;;;;;7.13;5.27;;;0.70;99.90;;;;;;5033526;28;20438;-44
2021/01/19 08:11:41;;;;;;;5.87;4.97;;;0.80;99.90;;;;;;5035627;28;20292;-47
2021/01/19 08:14:07;;;;;;;6.50;5.60;;;0.80;99.90;;;;;;5031864;28;20453;-45
2021/01/19 08:16:37;;;;;;;6.37;5.20;;;0.80;99.90;;;;;;5033841;28;20411;-44
2021/01/19 08:19:11;;;;;;;8.97;5.80;;;0.80;99.90;;;;;;5031316;28;20957;-50
2021/01/19 08:21:46;;;;;;;7.17;5.67;;;0.90;99.90;;;;;;5032656;28;20457;-45
2021/01/19 08:24:12;;;;;;;7.83;6.27;;;0.90;99.90;;;;;;5032439;28;20892;-45
2021/01/19 08:26:38;;;;;;;11.37;8.73;;;1.00;99.90;;;;;;5030722;28;20561;-46
2021/01/19 08:29:05;;;;;;;7.50;5.57;;;1.10;99.90;;;;;;5035318;28;20211;-47
2021/01/19 08:31:32;;;;;;;8.20;6.00;;;1.20;99.90;;;;;;5033764;28;20196;-45
2021/01/19 08:34:03;;;;;;;6.07;5.30;;;1.30;99.90;;;;;;5036219;28;20403;-45
2021/01/19 08:36:29;;;;;;;6.83;5.83;;;1.30;99.90;;;;;;5030419;28;20435;-45
2021/01/19 08:38:57;;;;;;;8.07;5.60;;;1.30;99.90;;;;;;5033490;28;20527;-45
2021/01/19 08:41:23;;;;;;;8.77;5.77;;;1.50;99.90;;;;;;5034050;28;20972;-47
2021/01/19 08:43:54;;;;;;;17.27;15.40;;;1.60;99.90;;;;;;5033516;28;20423;-46
2021/01/19 08:46:20;;;;;;;9.27;5.37;;;2.00;99.90;;;;;;5035082;28;20179;-45
2021/01/19 08:48:48;;;;;;;7.53;5.57;;;2.70;99.90;;;;;;5034004;28;20477;-45
2021/01/19 08:51:24;;;;;;;6.20;5.20;;;2.70;99.90;;;;;;5029411;28;20184;-45
2021/01/19 08:53:50;;;;;;;6.47;5.20;;;3.20;99.90;;;;;;5021593;28;20183;-46
2021/01/19 08:56:23;;;;;;;5.67;4.70;;;3.80;99.90;;;;;;5032809;28;20585;-50
2021/01/19 08:58:49;;;;;;;8.07;4.97;;;4.60;99.90;;;;;;5026856;28;20567;-47
2021/01/19 09:01:15;;;;;;;5.80;4.70;;;5.60;99.90;;;;;;5030966;28;20231;-46
2021/01/19 09:03:41;;;;;;;5.93;4.63;;;6.50;99.90;;;;;;5024642;28;20806;-46
2021/01/19 09:06:12;;;;;;;10.73;8.80;;;6.80;99.90;;;;;;5030874;28;20255;-49
2021/01/19 09:08:43;;;;;;;9.33;7.17;;;6.90;99.90;;;;;;5030872;28;20734;-49
2021/01/19 09:11:10;;;;;;;139.60;125.60;;;6.60;99.90;;;;;;5031761;28;20695;-46
2021/01/19 09:13:39;;;;;;;8.27;7.13;;;7.20;99.90;;;;;;5033856;28;20192;-48
2021/01/19 09:16:05;;;;;;;19.50;17.53;;;8.30;99.90;;;;;;5032791;28;20184;-45
2021/01/19 09:18:30;;;;;;;9.97;8.97;;;10.00;99.90;;;;;;5029310;28;20196;-46
2021/01/19 09:21:10;;;;;;;10.07;9.03;;;11.10;96.20;;;;;;5016559;28;20667;-44
2021/01/19 09:23:36;;;;;;;8.30;5.83;;;12.30;95.50;;;;;;5022177;28;20201;-48
2021/01/19 09:26:03;;;;;;;7.00;6.23;;;13.00;91.90;;;;;;5037725;28;20183;-46
2021/01/19 09:28:30;;;;;;;7.70;6.40;;;14.00;92.50;;;;;;5033825;28;20235;-51
2021/01/19 09:30:55;;;;;;;7.20;6.03;;;15.50;91.00;;;;;;5023616;28;20192;-50
2021/01/19 09:33:30;;;;;;;11.73;8.27;;;17.70;87.90;;;;;;5026061;28;20180;-48
2021/01/19 09:36:03;;;;;;;16.93;13.77;;;18.20;80.10;;;;;;5028125;28;20185;-47
2021/01/19 09:38:29;;;;;;;14.33;12.43;;;18.80;72.20;;;;;;5037299;28;20531;-45
2021/01/19 09:40:54;;;;;;;14.50;10.80;;;18.80;70.00;;;;;;5037058;28;20255;-48
2021/01/19 09:43:21;;;;;;;11.20;9.97;;;18.50;69.30;;;;;;5037237;28;20229;-45
2021/01/19 09:45:47;;;;;;;13.53;9.87;;;18.70;67.20;;;;;;5027345;28;20536;-48
2021/01/19 09:48:15;;;;;;;11.30;9.83;;;19.10;66.30;;;;;;5016935;28;20199;-50
2021/01/19 09:50:40;;;;;;;11.73;9.30;;;19.40;65.90;;;;;;5027144;28;20211;-53
2021/01/19 09:53:06;;;;;;;10.90;8.07;;;19.90;63.30;;;;;;5040264;28;20275;-46
2021/01/19 09:55:32;;;;;;;9.30;8.27;;;19.50;62.20;;;;;;5038877;28;20179;-47
2021/01/19 09:58:02;;;;;;;10.13;9.10;;;18.80;62.00;;;;;;5037089;28;20855;-46
2021/01/19 10:00:37;;;;;;;8.53;7.30;;;18.50;62.40;;;;;;5010665;28;20187;-46
2021/01/19 10:03:16;;;;;;;9.00;7.67;;;18.00;62.70;;;;;;5034163;28;20251;-47
2021/01/19 10:05:43;;;;;;;7.70;6.90;;;17.70;63.60;;;;;;5031732;28;20179;-47
2021/01/19 10:08:09;;;;;;;7.77;6.53;;;17.60;62.60;;;;;;5036248;28;20671;-44
2021/01/19 10:10:37;;;;;;;6.60;5.63;;;17.40;64.60;;;;;;5035319;28;20200;-47
2021/01/19 10:13:03;;;;;;;6.93;5.87;;;17.70;64.50;;;;;;5036490;28;20178;-47
2021/01/19 10:15:29;;;;;;;7.60;5.90;;;18.40;63.90;;;;;;5035020;28;20259;-45
2021/01/19 10:17:58;;;;;;;6.40;5.37;;;18.80;61.60;;;;;;5035249;28;20207;-46
2021/01/19 10:20:34;;;;;;;5.45;4.80;;;20.10;62.80;;;;;;5032132;28;20234;-45
2021/01/19 10:23:00;;;;;;;6.20;4.78;;;22.00;62.00;;;;;;5034796;28;20171;-48
2021/01/19 10:25:27;;;;;;;5.70;5.00;;;22.90;57.60;;;;;;5024887;28;20180;-46
2021/01/19 10:27:58;;;;;;;7.85;4.95;;;22.80;54.50;;;;;;5027534;28;20522;-46
2021/01/19 10:30:34;;;;;;;6.53;4.90;;;22.70;54.60;;;;;;5029187;28;20250;-44
2021/01/19 10:33:01;;;;;;;6.68;4.82;;;22.70;53.80;;;;;;5017626;28;20603;-46
2021/01/19 10:35:34;;;;;;;6.07;4.47;;;22.00;53.90;;;;;;5049636;28;20679;-49
2021/01/19 10:38:03;;;;;;;3.95;3.65;;;21.50;57.60;;;;;;5042500;28;20180;-48
2021/01/19 10:40:30;;;;;;;5.05;4.32;;;22.90;56.70;;;;;;5034081;28;20262;-45
2021/01/19 10:42:59;;;;;;;4.65;4.25;;;24.60;54.60;;;;;;5034027;28;20183;-45
2021/01/19 10:45:27;;;;;;;4.32;3.92;;;25.90;51.00;;;;;;5035794;28;20238;-47
2021/01/19 10:47:54;;;;;;;4.30;3.90;;;26.60;51.30;;;;;;5028802;28;20189;-45
2021/01/19 10:50:25;;;;;;;4.68;4.18;;;27.20;50.00;;;;;;5017056;28;20205;-47
2021/01/19 10:53:02;;;;;;;4.07;3.70;;;27.20;45.90;;;;;;5024721;28;20181;-49
2021/01/19 10:55:28;;;;;;;4.47;4.15;;;27.80;46.30;;;;;;5031435;28;20183;-54
2021/01/19 10:58:02;;;;;;;5.18;4.70;;;27.30;43.90;;;;;;5034273;28;20172;-48
2021/01/19 11:00:29;;;;;;;4.78;4.38;;;25.80;44.10;;;;;;5031923;28;20179;-46
2021/01/19 11:02:55;;;;;;;5.25;4.75;;;25.30;45.00;;;;;;5034108;28;20199;-47
2021/01/19 11:05:21;;;;;;;5.43;4.70;;;23.80;45.50;;;;;;5027499;28;20572;-49
2021/01/19 11:07:48;;;;;;;5.47;4.47;;;22.70;47.70;;;;;;5030034;28;20187;-44
2021/01/19 11:10:16;;;;;;;4.45;3.95;;;22.10;47.90;;;;;;5031373;28;20214;-50
2021/01/19 11:12:44;;;;;;;5.50;5.00;;;22.40;50.10;;;;;;5027117;28;20177;-50
2021/01/19 11:15:11;;;;;;;5.28;4.75;;;22.80;48.20;;;;;;5010257;28;20195;-46
2021/01/19 11:17:37;;;;;;;5.03;4.55;;;23.00;50.20;;;;;;5030398;28;20203;-45
2021/01/19 11:20:10;;;;;;;4.43;4.03;;;23.80;48.50;;;;;;5025083;28;20209;-46
2021/01/19 11:22:36;;;;;;;4.90;4.40;;;24.20;49.10;;;;;;5035547;28;20183;-45
2021/01/19 11:25:03;;;;;;;4.20;3.80;;;24.00;48.40;;;;;;5032969;28;20192;-45
2021/01/19 11:27:29;;;;;;;6.25;4.50;;;23.70;48.80;;;;;;5033325;28;20176;-47
2021/01/19 11:29:55;;;;;;;5.20;4.70;;;22.10;48.40;;;;;;5033417;28;20207;-48
2021/01/19 11:32:21;;;;;;;6.18;4.55;;;21.30;49.30;;;;;;5031436;28;20175;-50
2021/01/19 11:34:46;;;;;;;5.60;5.10;;;20.10;50.80;;;;;;5033322;28;20211;-43
2021/01/19 11:37:13;;;;;;;5.33;4.83;;;18.50;51.40;;;;;;5033270;28;20870;-48
2021/01/19 11:39:39;;;;;;;5.40;4.83;;;17.60;53.10;;;;;;5030389;28;20192;-45
2021/01/19 11:42:05;;;;;;;6.47;5.57;;;16.80;53.60;;;;;;5029916;28;20179;-47
2021/01/19 11:44:30;;;;;;;6.10;5.13;;;15.30;55.70;;;;;;5033857;28;20168;-45
2021/01/19 11:46:56;;;;;;;5.73;5.20;;;14.10;58.00;;;;;;5029833;28;20207;-47
2021/01/19 11:49:21;;;;;;;8.10;5.83;;;13.20;60.90;;;;;;5030494;28;20230;-46
2021/01/19 11:51:48;;;;;;;6.30;5.70;;;13.00;61.20;;;;;;5034084;28;20247;-44
2021/01/19 11:54:15;;;;;;;7.67;5.77;;;12.90;60.70;;;;;;5031921;28;20205;-49
2021/01/19 11:56:51;;;;;;;6.80;5.70;;;12.60;61.30;;;;;;5033869;28;20180;-46
2021/01/19 11:59:17;;;;;;;7.23;6.27;;;12.30;61.70;;;;;;5033205;28;20318;-49
2021/01/19 12:01:43;;;;;;;7.53;5.43;;;12.20;62.20;;;;;;5033747;28;20259;-48
2021/01/19 12:04:11;;;;;;;6.43;5.73;;;12.10;63.70;;;;;;5016519;28;20226;-48
2021/01/19 12:06:38;;;;;;;6.47;5.50;;;11.80;65.00;;;;;;5032267;28;20188;-51
2021/01/19 12:09:05;;;;;;;7.37;5.63;;;11.80;65.90;;;;;;5035064;28;20227;-48
2021/01/19 12:11:31;;;;;;;6.57;5.87;;;11.70;64.40;;;;;;5035361;28;20191;-48
2021/01/19 12:13:56;;;;;;;7.30;5.97;;;11.60;65.00;;;;;;5033835;28;20180;-47
2021/01/19 12:16:23;;;;;;;6.80;5.40;;;11.50;65.30;;;;;;5029742;28;20207;-51
2021/01/19 12:18:49;;;;;;;6.10;5.50;;;11.30;66.90;;;;;;5031103;28;20750;-48
2021/01/19 12:21:16;;;;;;;6.33;5.60;;;11.20;65.70;;;;;;5033743;28;20199;-47
2021/01/19 12:23:43;;;;;;;7.10;6.23;;;11.20;65.60;;;;;;5033990;28;20279;-48
2021/01/19 12:26:09;;;;;;;6.13;4.73;;;11.20;65.60;;;;;;5032996;28;20195;-47
2021/01/19 12:28:35;;;;;;;6.00;5.20;;;11.40;67.00;;;;;;5033274;28;20216;-47
2021/01/19 12:31:00;;;;;;;5.83;5.23;;;12.30;68.00;;;;;;5017309;28;20679;-48
2021/01/19 12:33:26;;;;;;;7.13;5.07;;;13.40;65.80;;;;;;5015970;28;20596;-49
2021/01/19 12:35:54;;;;;;;5.73;4.80;;;14.40;64.90;;;;;;5033220;28;20176;-51
2021/01/19 12:38:21;;;;;;;5.60;4.40;;;15.30;64.30;;;;;;5033098;28;20195;-46
2021/01/19 12:40:48;;;;;;;6.03;5.30;;;16.30;60.50;;;;;;5033877;28;20186;-46
2021/01/19 12:43:13;;;;;;;5.60;5.10;;;17.50;58.60;;;;;;5015614;28;20628;-47
2021/01/19 12:45:39;;;;;;;5.17;4.67;;;18.20;58.80;;;;;;5027545;28;20243;-46
2021/01/19 12:48:06;;;;;;;6.40;5.30;;;18.60;57.50;;;;;;5029803;28;20247;-46
2021/01/19 12:50:33;;;;;;;6.07;4.97;;;18.80;55.10;;;;;;5034108;28;20314;-44
2021/01/19 12:53:01;;;;;;;5.93;5.33;;;18.30;54.40;;;;;;5032930;28;20545;-49
2021/01/19 12:55:27;;;;;;;5.90;5.30;;;17.40;54.40;;;;;;5033245;28;20177;-46
2021/01/19 12:57:53;;;;;;;6.67;5.33;;;16.30;56.30;;;;;;5034147;28;20501;-49
2021/01/19 13:00:19;;;;;;;8.83;7.93;;;15.50;57.10;;;;;;5032689;28;20224;-47